Porto Di Livorno — IFPU2 — position and weather

sailwx.info

Track history (hours):
 
Tides and Currents Weather Stations Pressure Air Temp Water Temp Dewpoint Dewpoint Depression Visibility Wind Speed Wind Dir Waves Ship Positions

Porto Di Livorno

Last reported at 2015-Jan-31 15:33 UTC. Time now 2015-Jan-31 16:12 UTC.
Position N 43°34' E 010°19'.

Length 24 m; draft 6.1 m.

Type: Tug. MMSI: 247194299.

Date/timePositionNaut miles runAvg speedWind from/ knotsBaromVisibWave heightAir tempDewpointWater temp
2015-Jan-31 15:33N 43°34' E 010°19'3 3.0
2015-Jan-31 14:33N 43°32' E 010°16'3 3.4
2015-Jan-31 13:33N 43°35' E 010°19'1 1.4
2015-Jan-31 12:33N 43°34' E 010°18'0 0.0
2015-Jan-31 11:33N 43°34' E 010°18'0 0.0
2015-Jan-31 10:33N 43°34' E 010°18'1 0.6
2015-Jan-31 09:33N 43°33' E 010°18'0 0.2
2015-Jan-31 08:33N 43°33' E 010°18'1 1.0
2015-Jan-31 07:33N 43°34' E 010°18'1 1.1
2015-Jan-31 06:33N 43°33' E 010°18'1 0.5
2015-Jan-31 05:33N 43°34' E 010°18'0 0.0
2015-Jan-30 16:33N 43°34' E 010°18'0 0.0
2015-Jan-30 15:33N 43°34' E 010°18'0 0.0
2015-Jan-30 14:33N 43°34' E 010°18'0 0.0
2015-Jan-30 13:33N 43°34' E 010°18'0 0.0
2015-Jan-30 12:33N 43°34' E 010°18'0 0.0
2015-Jan-30 11:33N 43°34' E 010°18'1 0.9
2015-Jan-30 10:33N 43°34' E 010°19'1 0.9
2015-Jan-30 09:33N 43°34' E 010°18'0 0.0
2015-Jan-30 08:33N 43°34' E 010°18'0 0.0
2015-Jan-30 01:33N 43°34' E 010°18'0 0.0
2015-Jan-30 00:33N 43°34' E 010°18'0 0.0
2015-Jan-29 23:33N 43°34' E 010°18'0 0.0
2015-Jan-29 22:33N 43°34' E 010°18'0 0.0
2015-Jan-29 16:33N 43°34' E 010°18'0 0.0
2015-Jan-29 15:33N 43°34' E 010°18'1 1.4
2015-Jan-29 14:33N 43°35' E 010°19'1 1.4
2015-Jan-29 13:33N 43°34' E 010°18'0 0.0
2015-Jan-29 12:33N 43°34' E 010°18'0 0.0
2015-Jan-29 11:33N 43°34' E 010°18'0 0.0
2015-Jan-29 10:33N 43°34' E 010°18'0 0.0
2015-Jan-29 09:33N 43°34' E 010°18'0 0.0
2015-Jan-29 08:33N 43°34' E 010°18'1 0.5
2015-Jan-29 07:33N 43°34' E 010°19'0 0.1
2015-Jan-29 06:33N 43°34' E 010°19'1 0.7
2015-Jan-29 05:33N 43°34' E 010°18'0 0.0
2015-Jan-29 04:33N 43°34' E 010°18'0 0.0
2015-Jan-29 03:33N 43°34' E 010°18'0 0.0
2015-Jan-29 02:33N 43°34' E 010°18'1 1.0
2015-Jan-29 01:33N 43°33' E 010°17'1 1.1
2015-Jan-29 00:33N 43°34' E 010°18'0 0.2
2015-Jan-28 23:33N 43°34' E 010°18'0 0.0
2015-Jan-28 22:33N 43°34' E 010°18'0 0.0
2015-Jan-28 21:33N 43°34' E 010°18'1 0.6
2015-Jan-28 20:33N 43°34' E 010°18'1 0.6
2015-Jan-28 19:33N 43°34' E 010°18'1 0.6
2015-Jan-28 18:33N 43°34' E 010°18'0 0.5
2015-Jan-28 17:33N 43°34' E 010°19'1 0.0
2015-Jan-27 16:33N 43°34' E 010°18'0 0.2
2015-Jan-27 15:33N 43°33' E 010°18'0 0.2
2015-Jan-27 14:33N 43°34' E 010°18'0 0.0
2015-Jan-27 13:33N 43°34' E 010°18'0 0.0
2015-Jan-27 12:33N 43°34' E 010°18'0 0.0
2015-Jan-27 11:33N 43°34' E 010°18'0 0.0
2015-Jan-27 10:33N 43°34' E 010°18'0 0.0
2015-Jan-27 09:33N 43°34' E 010°18'1 0.7
2015-Jan-27 08:33N 43°34' E 010°18'1 0.7
2015-Jan-27 07:33N 43°34' E 010°18'0 0.0
2015-Jan-27 06:33N 43°34' E 010°18'0 0.0
2015-Jan-27 05:33N 43°34' E 010°18'0 0.0
2015-Jan-27 04:33N 43°34' E 010°18'0 0.0
2015-Jan-27 03:33N 43°34' E 010°18'0 0.0
2015-Jan-27 02:33N 43°34' E 010°18'0 0.0
2015-Jan-27 01:33N 43°34' E 010°18'0 0.0
2015-Jan-27 00:33N 43°34' E 010°18'0 0.0
2015-Jan-26 23:33N 43°34' E 010°18'0 0.0
2015-Jan-26 22:33N 43°34' E 010°18'1 1.2
2015-Jan-26 21:33N 43°33' E 010°17'1 1.2
2015-Jan-26 20:33N 43°34' E 010°18'0 0.0
2015-Jan-26 19:33N 43°34' E 010°18'0 0.0
2015-Jan-26 18:33N 43°34' E 010°18'0 0.0
2015-Jan-26 17:33N 43°34' E 010°18'0 0.0
2015-Jan-25 16:33N 43°34' E 010°18'1 1.0
2015-Jan-25 15:33N 43°35' E 010°18'2 2.4
2015-Jan-25 14:33N 43°32' E 010°17'3 2.5
2015-Jan-25 13:33N 43°35' E 010°18'2 2.1
2015-Jan-25 12:33N 43°33' E 010°17'2 2.0
2015-Jan-25 11:33N 43°35' E 010°18'0 0.1
2015-Jan-25 10:33N 43°34' E 010°18'1 0.8
2015-Jan-25 09:33N 43°35' E 010°19'3 3.0
2015-Jan-25 08:33N 43°32' E 010°17'1 1.2
2015-Jan-25 07:33N 43°34' E 010°18'0 0.3
2015-Jan-25 06:33N 43°34' E 010°18'0 0.0
2015-Jan-25 05:33N 43°34' E 010°18'0 0.0
2015-Jan-25 04:33N 43°34' E 010°18'1 0.8
2015-Jan-25 03:33N 43°34' E 010°19'1 0.8
2015-Jan-25 02:33N 43°34' E 010°18'0 0.0
2015-Jan-25 01:33N 43°34' E 010°18'0 0.0
2015-Jan-25 00:33N 43°34' E 010°18'0 0.0
2015-Jan-24 23:33N 43°34' E 010°18'0 0.0
2015-Jan-24 22:33N 43°34' E 010°18'0 0.0
2015-Jan-24 21:33N 43°34' E 010°18'0 0.0
2015-Jan-24 20:33N 43°34' E 010°18'0 0.4
2015-Jan-24 19:33N 43°33' E 010°18'0 0.2
2015-Jan-24 18:33N 43°33' E 010°17'2 1.9
2015-Jan-24 17:33N 43°35' E 010°19'0 0.0
2015-Jan-23 16:34N 43°35' E 010°18'4 4.1
2015-Jan-23 15:34N 43°31' E 010°15'4 3.8
2015-Jan-23 14:34N 43°34' E 010°18'1 0.8
2015-Jan-23 13:34N 43°34' E 010°18'0 0.3
2015-Jan-23 12:34N 43°34' E 010°18'0 0.0
2015-Jan-23 11:34N 43°34' E 010°18'0 0.0
2015-Jan-23 10:33N 43°34' E 010°18'0 0.0
2015-Jan-23 09:33N 43°34' E 010°18'1 1.1
2015-Jan-23 08:33N 43°35' E 010°19'2 1.5
2015-Jan-23 07:34N 43°33' E 010°18'2 2.0
2015-Jan-23 06:33N 43°35' E 010°19'1 0.8
2015-Jan-23 05:33N 43°35' E 010°18'1 1.0
2015-Jan-23 04:34N 43°34' E 010°18'0 0.0
2015-Jan-23 03:33N 43°34' E 010°18'0 0.0
2015-Jan-23 02:33N 43°34' E 010°18'0 0.0
2015-Jan-23 01:33N 43°34' E 010°18'1 0.8
2015-Jan-23 00:34N 43°34' E 010°18'1 0.9
2015-Jan-22 23:34N 43°34' E 010°18'0 0.0
2015-Jan-22 22:34N 43°34' E 010°18'0 0.1
2015-Jan-22 21:34N 43°34' E 010°18'0 0.1
2015-Jan-22 20:34N 43°34' E 010°18'0 0.0
2015-Jan-22 19:34N 43°34' E 010°18'1 1.1
2015-Jan-22 18:33N 43°35' E 010°19'1 1.1
2015-Jan-22 17:34N 43°34' E 010°18'0 0.0
2015-Jan-21 16:34N 43°34' E 010°18'0 0.0
2015-Jan-21 15:34N 43°34' E 010°18'  
Track history (hours):
 
Tides and Currents Weather Stations Pressure Air Temp Water Temp Dewpoint Dewpoint Depression Visibility Wind Speed Wind Dir Waves Ship Positions

Porto Di Livorno

Last reported at 2015-Jan-31 15:33 UTC. Time now 2015-Jan-31 16:12 UTC.
Position N 43°34' E 010°19'.

Length 24 m; draft 6.1 m.

Type: Tug. MMSI: 247194299.

Date/timePositionNaut miles runAvg speedWind from/ knotsBaromVisibWave heightAir tempDewpointWater temp
2015-Jan-31 15:33N 43°34' E 010°19'3 3.0
2015-Jan-31 14:33N 43°32' E 010°16'3 3.4
2015-Jan-31 13:33N 43°35' E 010°19'1 1.4
2015-Jan-31 12:33N 43°34' E 010°18'0 0.0
2015-Jan-31 11:33N 43°34' E 010°18'0 0.0
2015-Jan-31 10:33N 43°34' E 010°18'1 0.6
2015-Jan-31 09:33N 43°33' E 010°18'0 0.2
2015-Jan-31 08:33N 43°33' E 010°18'1 1.0
2015-Jan-31 07:33N 43°34' E 010°18'1 1.1
2015-Jan-31 06:33N 43°33' E 010°18'1 0.5
2015-Jan-31 05:33N 43°34' E 010°18'0 0.0
2015-Jan-30 16:33N 43°34' E 010°18'0 0.0
2015-Jan-30 15:33N 43°34' E 010°18'0 0.0
2015-Jan-30 14:33N 43°34' E 010°18'0 0.0
2015-Jan-30 13:33N 43°34' E 010°18'0 0.0
2015-Jan-30 12:33N 43°34' E 010°18'0 0.0
2015-Jan-30 11:33N 43°34' E 010°18'1 0.9
2015-Jan-30 10:33N 43°34' E 010°19'1 0.9
2015-Jan-30 09:33N 43°34' E 010°18'0 0.0
2015-Jan-30 08:33N 43°34' E 010°18'0 0.0
2015-Jan-30 01:33N 43°34' E 010°18'0 0.0
2015-Jan-30 00:33N 43°34' E 010°18'0 0.0
2015-Jan-29 23:33N 43°34' E 010°18'0 0.0
2015-Jan-29 22:33N 43°34' E 010°18'0 0.0
2015-Jan-29 16:33N 43°34' E 010°18'0 0.0
2015-Jan-29 15:33N 43°34' E 010°18'1 1.4
2015-Jan-29 14:33N 43°35' E 010°19'1 1.4
2015-Jan-29 13:33N 43°34' E 010°18'0 0.0
2015-Jan-29 12:33N 43°34' E 010°18'0 0.0
2015-Jan-29 11:33N 43°34' E 010°18'0 0.0
2015-Jan-29 10:33N 43°34' E 010°18'0 0.0
2015-Jan-29 09:33N 43°34' E 010°18'0 0.0
2015-Jan-29 08:33N 43°34' E 010°18'1 0.5
2015-Jan-29 07:33N 43°34' E 010°19'0 0.1
2015-Jan-29 06:33N 43°34' E 010°19'1 0.7
2015-Jan-29 05:33N 43°34' E 010°18'0 0.0
2015-Jan-29 04:33N 43°34' E 010°18'0 0.0
2015-Jan-29 03:33N 43°34' E 010°18'0 0.0
2015-Jan-29 02:33N 43°34' E 010°18'1 1.0
2015-Jan-29 01:33N 43°33' E 010°17'1 1.1
2015-Jan-29 00:33N 43°34' E 010°18'0 0.2
2015-Jan-28 23:33N 43°34' E 010°18'0 0.0
2015-Jan-28 22:33N 43°34' E 010°18'0 0.0
2015-Jan-28 21:33N 43°34' E 010°18'1 0.6
2015-Jan-28 20:33N 43°34' E 010°18'1 0.6
2015-Jan-28 19:33N 43°34' E 010°18'1 0.6
2015-Jan-28 18:33N 43°34' E 010°18'0 0.5
2015-Jan-28 17:33N 43°34' E 010°19'1 0.0
2015-Jan-27 16:33N 43°34' E 010°18'0 0.2
2015-Jan-27 15:33N 43°33' E 010°18'0 0.2
2015-Jan-27 14:33N 43°34' E 010°18'0 0.0
2015-Jan-27 13:33N 43°34' E 010°18'0 0.0
2015-Jan-27 12:33N 43°34' E 010°18'0 0.0
2015-Jan-27 11:33N 43°34' E 010°18'0 0.0
2015-Jan-27 10:33N 43°34' E 010°18'0 0.0
2015-Jan-27 09:33N 43°34' E 010°18'1 0.7
2015-Jan-27 08:33N 43°34' E 010°18'1 0.7
2015-Jan-27 07:33N 43°34' E 010°18'0 0.0
2015-Jan-27 06:33N 43°34' E 010°18'0 0.0
2015-Jan-27 05:33N 43°34' E 010°18'0 0.0
2015-Jan-27 04:33N 43°34' E 010°18'0 0.0
2015-Jan-27 03:33N 43°34' E 010°18'0 0.0
2015-Jan-27 02:33N 43°34' E 010°18'0 0.0
2015-Jan-27 01:33N 43°34' E 010°18'0 0.0
2015-Jan-27 00:33N 43°34' E 010°18'0 0.0
2015-Jan-26 23:33N 43°34' E 010°18'0 0.0
2015-Jan-26 22:33N 43°34' E 010°18'1 1.2
2015-Jan-26 21:33N 43°33' E 010°17'1 1.2
2015-Jan-26 20:33N 43°34' E 010°18'0 0.0
2015-Jan-26 19:33N 43°34' E 010°18'0 0.0
2015-Jan-26 18:33N 43°34' E 010°18'0 0.0
2015-Jan-26 17:33N 43°34' E 010°18'0 0.0
2015-Jan-25 16:33N 43°34' E 010°18'1 1.0
2015-Jan-25 15:33N 43°35' E 010°18'2 2.4
2015-Jan-25 14:33N 43°32' E 010°17'3 2.5
2015-Jan-25 13:33N 43°35' E 010°18'2 2.1
2015-Jan-25 12:33N 43°33' E 010°17'2 2.0
2015-Jan-25 11:33N 43°35' E 010°18'0 0.1
2015-Jan-25 10:33N 43°34' E 010°18'1 0.8
2015-Jan-25 09:33N 43°35' E 010°19'3 3.0
2015-Jan-25 08:33N 43°32' E 010°17'1 1.2
2015-Jan-25 07:33N 43°34' E 010°18'0 0.3
2015-Jan-25 06:33N 43°34' E 010°18'0 0.0
2015-Jan-25 05:33N 43°34' E 010°18'0 0.0
2015-Jan-25 04:33N 43°34' E 010°18'1 0.8
2015-Jan-25 03:33N 43°34' E 010°19'1 0.8
2015-Jan-25 02:33N 43°34' E 010°18'0 0.0
2015-Jan-25 01:33N 43°34' E 010°18'0 0.0
2015-Jan-25 00:33N 43°34' E 010°18'0 0.0
2015-Jan-24 23:33N 43°34' E 010°18'0 0.0
2015-Jan-24 22:33N 43°34' E 010°18'0 0.0
2015-Jan-24 21:33N 43°34' E 010°18'0 0.0
2015-Jan-24 20:33N 43°34' E 010°18'0 0.4
2015-Jan-24 19:33N 43°33' E 010°18'0 0.2
2015-Jan-24 18:33N 43°33' E 010°17'2 1.9
2015-Jan-24 17:33N 43°35' E 010°19'0 0.0
2015-Jan-23 16:34N 43°35' E 010°18'4 4.1
2015-Jan-23 15:34N 43°31' E 010°15'4 3.8
2015-Jan-23 14:34N 43°34' E 010°18'1 0.8
2015-Jan-23 13:34N 43°34' E 010°18'0 0.3
2015-Jan-23 12:34N 43°34' E 010°18'0 0.0
2015-Jan-23 11:34N 43°34' E 010°18'0 0.0
2015-Jan-23 10:33N 43°34' E 010°18'0 0.0
2015-Jan-23 09:33N 43°34' E 010°18'1 1.1
2015-Jan-23 08:33N 43°35' E 010°19'2 1.5
2015-Jan-23 07:34N 43°33' E 010°18'2 2.0
2015-Jan-23 06:33N 43°35' E 010°19'1 0.8
2015-Jan-23 05:33N 43°35' E 010°18'1 1.0
2015-Jan-23 04:34N 43°34' E 010°18'0 0.0
2015-Jan-23 03:33N 43°34' E 010°18'0 0.0
2015-Jan-23 02:33N 43°34' E 010°18'0 0.0
2015-Jan-23 01:33N 43°34' E 010°18'1 0.8
2015-Jan-23 00:34N 43°34' E 010°18'1 0.9
2015-Jan-22 23:34N 43°34' E 010°18'0 0.0
2015-Jan-22 22:34N 43°34' E 010°18'0 0.1
2015-Jan-22 21:34N 43°34' E 010°18'0 0.1
2015-Jan-22 20:34N 43°34' E 010°18'0 0.0
2015-Jan-22 19:34N 43°34' E 010°18'1 1.1
2015-Jan-22 18:33N 43°35' E 010°19'1 1.1
2015-Jan-22 17:34N 43°34' E 010°18'0 0.0
2015-Jan-21 16:34N 43°34' E 010°18'0 0.0
2015-Jan-21 15:34N 43°34' E 010°18'  

Dump ship's entire track history